createdAt,value
2022-10-11T00:00:23.872Z,75.12
2022-10-11T00:03:14.832Z,75.03
2022-10-11T00:05:45.269Z,75.13
2022-10-11T00:08:16.015Z,75.12
2022-10-11T00:10:47.462Z,75.14
2022-10-11T00:13:21.668Z,75.25
2022-10-11T00:15:51.816Z,75.24
2022-10-11T00:18:22.667Z,75.30
2022-10-11T00:21:07.464Z,75.31
2022-10-11T00:23:38.941Z,75.37
2022-10-11T00:26:14.214Z,75.33
2022-10-11T00:28:45.054Z,75.39
2022-10-11T00:31:19.610Z,75.50
2022-10-11T00:33:50.558Z,75.39
2022-10-11T00:36:24.865Z,75.24
2022-10-11T00:38:56.190Z,75.20
2022-10-11T00:41:27.903Z,75.18
2022-10-11T00:44:12.443Z,75.18
2022-10-11T00:46:47.430Z,75.11
2022-10-11T00:49:35.365Z,75.11
2022-10-11T00:52:29.663Z,75.13
2022-10-11T00:55:08.147Z,75.28
2022-10-11T00:57:43.316Z,75.20
2022-10-11T01:00:16.622Z,75.18
2022-10-11T01:02:48.281Z,75.23
2022-10-11T01:05:30.147Z,75.41
2022-10-11T01:08:02.540Z,75.29
2022-10-11T01:10:34.188Z,75.37
2022-10-11T01:13:30.233Z,75.48
2022-10-11T01:16:16.945Z,75.41
2022-10-11T01:19:05.883Z,75.46
2022-10-11T01:21:44.224Z,75.53
2022-10-11T01:24:48.295Z,75.50
2022-10-11T01:27:32.377Z,75.59
2022-10-11T01:30:25.483Z,75.50
2022-10-11T01:33:41.296Z,75.64
2022-10-11T01:36:28.870Z,75.60
2022-10-11T01:39:11.728Z,75.59
2022-10-11T01:41:54.361Z,75.59
2022-10-11T01:44:30.249Z,75.54
2022-10-11T01:47:01.614Z,75.14
2022-10-11T01:49:34.946Z,75.00
2022-10-11T01:52:09.405Z,74.83
2022-10-11T01:55:09.673Z,75.16
2022-10-11T01:57:41.027Z,75.34
2022-10-11T02:00:29.572Z,75.62
2022-10-11T02:03:16.173Z,75.98
2022-10-11T02:06:01.761Z,76.01
2022-10-11T02:08:44.911Z,76.38
2022-10-11T02:11:16.029Z,76.66
2022-10-11T02:14:12.147Z,77.08
2022-10-11T02:16:53.348Z,77.35
2022-10-11T02:19:33.479Z,77.67
2022-10-11T02:22:13.027Z,77.94
2022-10-11T02:24:50.460Z,78.24
2022-10-11T02:27:31.823Z,78.59
2022-10-11T02:30:06.008Z,78.65
2022-10-11T02:32:45.062Z,78.88
2022-10-11T02:35:16.670Z,79.89
2022-10-11T02:37:52.569Z,81.06
2022-10-11T02:40:36.916Z,81.97
2022-10-11T02:43:52.700Z,82.26
2022-10-11T02:46:23.679Z,82.14
2022-10-11T02:49:00.592Z,82.19
2022-10-11T02:51:34.700Z,81.98
2022-10-11T02:54:05.047Z,81.90
2022-10-11T02:56:34.399Z,81.97
2022-10-11T02:59:06.629Z,82.01
2022-10-11T03:01:34.879Z,82.11
2022-10-11T03:04:03.672Z,82.28
2022-10-11T03:06:32.199Z,82.28
2022-10-11T03:09:00.286Z,82.20
2022-10-11T03:11:28.366Z,82.39
2022-10-11T03:13:56.372Z,82.53
2022-10-11T03:16:24.387Z,82.39
2022-10-11T03:18:52.362Z,82.67
2022-10-11T03:21:20.473Z,82.69
2022-10-11T03:23:48.643Z,82.93
2022-10-11T03:26:17.113Z,83.07
2022-10-11T03:28:45.419Z,83.18
2022-10-11T03:31:18.684Z,83.31
2022-10-11T03:33:46.705Z,83.24
2022-10-11T03:36:15.097Z,83.01
2022-10-11T03:38:43.117Z,83.16
2022-10-11T03:41:11.151Z,83.36
2022-10-11T03:43:39.248Z,83.25
2022-10-11T03:46:07.767Z,83.19
2022-10-11T03:48:36.415Z,83.22
2022-10-11T03:51:04.690Z,83.21
2022-10-11T03:53:32.775Z,83.34
2022-10-11T03:56:04.688Z,83.50
2022-10-11T03:58:36.488Z,83.54
2022-10-11T04:01:05.090Z,83.50
2022-10-11T04:03:33.646Z,83.41
2022-10-11T04:06:03.016Z,83.59
2022-10-11T04:08:31.487Z,83.68
2022-10-11T04:10:59.742Z,83.76
2022-10-11T04:13:28.466Z,84.03
2022-10-11T04:15:56.853Z,84.05
2022-10-11T04:18:24.935Z,84.11
2022-10-11T04:20:52.885Z,84.48
2022-10-11T04:23:20.852Z,84.58
2022-10-11T04:25:49.281Z,84.38
2022-10-11T04:28:18.924Z,84.49
2022-10-11T04:30:47.795Z,84.74
2022-10-11T04:33:17.352Z,84.57
2022-10-11T04:35:45.311Z,84.56
2022-10-11T04:38:13.329Z,84.73
2022-10-11T04:40:41.885Z,85.23
2022-10-11T04:43:10.111Z,85.69
2022-10-11T04:45:38.348Z,85.72
2022-10-11T04:48:06.839Z,85.84
2022-10-11T04:50:35.772Z,86.20
2022-10-11T04:53:12.597Z,86.44
2022-10-11T04:55:41.020Z,86.66
2022-10-11T04:58:09.217Z,86.47
2022-10-11T05:00:37.939Z,86.20
2022-10-11T05:03:06.177Z,85.99
2022-10-11T05:05:34.190Z,85.56
2022-10-11T05:08:02.293Z,85.64
2022-10-11T05:10:30.760Z,85.55
2022-10-11T05:12:58.804Z,86.20
2022-10-11T05:15:26.968Z,86.24
2022-10-11T05:17:55.348Z,86.53
2022-10-11T05:20:23.503Z,86.58
2022-10-11T05:22:51.822Z,86.72
2022-10-11T05:25:24.066Z,86.94
2022-10-11T05:27:52.131Z,86.71
2022-10-11T05:30:20.310Z,86.65
2022-10-11T05:32:48.422Z,86.80
2022-10-11T05:35:16.757Z,86.80
2022-10-11T05:37:45.072Z,86.55
2022-10-11T05:40:13.295Z,86.25
2022-10-11T05:42:41.492Z,86.21
2022-10-11T05:45:09.889Z,85.88
2022-10-11T05:47:37.940Z,85.62
2022-10-11T05:50:06.417Z,85.62
2022-10-11T05:52:34.679Z,85.50
2022-10-11T05:55:03.561Z,85.21
2022-10-11T05:57:31.844Z,85.04
2022-10-11T06:00:00.369Z,85.02
2022-10-11T06:02:28.996Z,84.62
2022-10-11T06:04:57.381Z,84.38
2022-10-11T06:07:25.727Z,84.39
2022-10-11T06:09:54.099Z,83.88
2022-10-11T06:12:22.214Z,83.88
2022-10-11T06:14:50.630Z,83.87
2022-10-11T06:17:18.888Z,84.01
2022-10-11T06:19:46.978Z,83.81
2022-10-11T06:22:15.098Z,83.89
2022-10-11T06:24:43.248Z,83.38
2022-10-11T06:27:12.764Z,83.00
2022-10-11T06:29:41.005Z,83.00
2022-10-11T06:32:09.313Z,83.07
2022-10-11T06:34:37.451Z,82.93
2022-10-11T06:37:09.006Z,82.73
2022-10-11T06:39:37.080Z,82.35
2022-10-11T06:42:05.251Z,82.23
2022-10-11T06:44:33.949Z,82.34
2022-10-11T06:47:02.129Z,82.15
2022-10-11T06:49:30.247Z,82.05
2022-10-11T06:51:58.370Z,82.12
2022-10-11T06:54:26.886Z,81.95
2022-10-11T06:56:55.079Z,81.48
2022-10-11T06:59:23.313Z,81.11
2022-10-11T07:01:51.645Z,80.70
2022-10-11T07:04:19.999Z,80.39
2022-10-11T07:06:48.509Z,79.43
2022-10-11T07:09:16.660Z,78.42
2022-10-11T07:11:46.356Z,77.83
2022-10-11T07:14:14.711Z,77.73
2022-10-11T07:16:42.962Z,77.78
2022-10-11T07:19:11.416Z,76.49
2022-10-11T07:21:39.627Z,76.57
2022-10-11T07:24:07.944Z,75.99
2022-10-11T07:26:38.551Z,75.95
2022-10-11T07:29:09.582Z,75.07
2022-10-11T07:31:40.444Z,74.89
2022-10-11T07:34:09.490Z,74.33
2022-10-11T07:36:37.854Z,73.98
2022-10-11T07:39:07.420Z,73.92
2022-10-11T07:41:38.883Z,74.21
2022-10-11T07:44:10.004Z,74.14
2022-10-11T07:46:40.199Z,73.98
2022-10-11T07:49:08.264Z,71.87
2022-10-11T07:51:36.474Z,71.97
2022-10-11T07:54:07.277Z,72.55
2022-10-11T07:56:37.637Z,71.44
2022-10-11T07:59:06.531Z,71.45
2022-10-11T08:01:34.688Z,70.59
2022-10-11T08:04:03.572Z,69.70
2022-10-11T08:06:32.843Z,69.38
2022-10-11T08:09:01.930Z,68.51
2022-10-11T08:11:33.028Z,68.94
2022-10-11T08:14:02.569Z,68.04
2022-10-11T08:16:31.110Z,68.79
2022-10-11T08:18:59.254Z,69.02
2022-10-11T08:21:27.414Z,69.32
2022-10-11T08:23:55.500Z,68.75
2022-10-11T08:26:23.889Z,68.71
2022-10-11T08:28:52.059Z,68.81
2022-10-11T08:31:20.257Z,67.62
2022-10-11T08:33:48.237Z,65.16
2022-10-11T08:36:16.507Z,64.51
2022-10-11T08:38:44.722Z,64.87
2022-10-11T08:41:24.888Z,64.87
2022-10-11T08:44:02.518Z,64.80
2022-10-11T08:46:34.812Z,64.88
2022-10-11T08:49:04.168Z,64.83
2022-10-11T08:51:47.896Z,62.88
2022-10-11T08:54:31.606Z,62.93
2022-10-11T08:57:01.457Z,63.38
2022-10-11T08:59:39.012Z,62.86
2022-10-11T09:02:26.342Z,63.96
2022-10-11T09:04:56.582Z,64.37
2022-10-11T09:07:36.432Z,63.95
2022-10-11T09:10:22.571Z,63.65
2022-10-11T09:13:02.505Z,62.21
2022-10-11T09:16:06.260Z,61.18
2022-10-11T09:18:43.630Z,60.65
2022-10-11T09:21:22.678Z,61.66
2022-10-11T09:24:09.333Z,60.01
2022-10-11T09:26:59.524Z,60.26
2022-10-11T09:29:45.713Z,60.83
2022-10-11T09:32:21.410Z,58.95
2022-10-11T09:35:00.025Z,57.91
2022-10-11T09:37:38.181Z,59.57
2022-10-11T09:40:43.448Z,59.92
2022-10-11T09:43:12.245Z,59.69
2022-10-11T09:45:49.302Z,59.95
2022-10-11T09:48:23.140Z,59.92
2022-10-11T09:50:52.425Z,58.92
2022-10-11T09:53:22.197Z,57.70
2022-10-11T09:56:02.783Z,57.10
2022-10-11T09:58:34.617Z,57.59
2022-10-11T10:01:12.112Z,56.62
2022-10-11T10:03:44.593Z,57.20
2022-10-11T10:06:27.580Z,58.16
2022-10-11T10:09:24.619Z,58.81
2022-10-11T10:11:54.882Z,58.35
2022-10-11T10:14:30.241Z,58.30
2022-10-11T10:17:05.881Z,58.50
2022-10-11T10:19:44.667Z,57.87
2022-10-11T10:22:31.289Z,57.71
2022-10-11T10:25:03.652Z,57.19
2022-10-11T10:27:34.610Z,57.22
2022-10-11T10:30:10.685Z,55.55
2022-10-11T10:33:11.334Z,56.11
2022-10-11T10:35:45.848Z,57.03
2022-10-11T10:39:07.959Z,56.74
2022-10-11T10:41:36.730Z,57.28
2022-10-11T10:44:05.309Z,57.86
2022-10-11T10:46:42.223Z,57.69
2022-10-11T10:49:52.576Z,56.60
2022-10-11T10:52:20.176Z,56.40
2022-10-11T10:55:04.366Z,56.03
2022-10-11T10:58:02.894Z,56.74
2022-10-11T11:00:44.267Z,56.95
2022-10-11T11:04:03.009Z,57.60
2022-10-11T11:06:42.956Z,56.94
2022-10-11T11:09:26.615Z,57.45
2022-10-11T11:12:20.188Z,55.94
2022-10-11T11:15:03.663Z,54.95
2022-10-11T11:18:04.069Z,55.83
2022-10-11T11:20:37.395Z,56.22
2022-10-11T11:23:40.473Z,56.07
2022-10-11T11:26:20.737Z,55.80
2022-10-11T11:29:25.696Z,55.76
2022-10-11T11:31:56.723Z,56.24
2022-10-11T11:34:40.080Z,56.40
2022-10-11T11:37:23.687Z,56.30
2022-10-11T11:39:57.708Z,55.46
2022-10-11T11:42:36.058Z,54.93
2022-10-11T11:45:15.374Z,55.22
2022-10-11T11:47:47.551Z,55.57
2022-10-11T11:50:23.439Z,55.65
2022-10-11T11:53:00.253Z,54.86
2022-10-11T11:55:36.686Z,54.29
2022-10-11T11:58:13.284Z,54.77
2022-10-11T12:01:06.886Z,53.28
2022-10-11T12:03:42.050Z,52.55
2022-10-11T12:06:16.051Z,52.53
2022-10-11T12:08:48.639Z,52.48
2022-10-11T12:11:22.655Z,53.13
2022-10-11T12:13:53.105Z,53.59
2022-10-11T12:16:23.094Z,53.93
2022-10-11T12:18:57.255Z,51.79
2022-10-11T12:21:33.195Z,51.67
2022-10-11T12:24:21.567Z,53.14
2022-10-11T12:26:54.643Z,53.31
2022-10-11T12:29:43.703Z,53.00
2022-10-11T12:32:35.357Z,52.03
2022-10-11T12:35:31.504Z,51.42
2022-10-11T12:38:18.524Z,51.22
2022-10-11T12:40:48.339Z,50.88
2022-10-11T12:43:16.574Z,50.87
2022-10-11T12:45:48.149Z,50.37
2022-10-11T12:48:52.656Z,50.37
2022-10-11T12:51:33.961Z,50.94
2022-10-11T12:54:37.256Z,51.03
2022-10-11T12:57:12.105Z,51.09
2022-10-11T12:59:46.542Z,51.23
2022-10-11T13:02:28.805Z,51.47
2022-10-11T13:05:21.186Z,51.10
2022-10-11T13:07:51.862Z,50.47
2022-10-11T13:10:33.382Z,51.75
2022-10-11T13:13:04.805Z,52.63
2022-10-11T13:15:34.547Z,51.99
2022-10-11T13:18:07.138Z,50.90
2022-10-11T13:20:40.297Z,50.37
2022-10-11T13:23:38.359Z,50.65
2022-10-11T13:26:09.616Z,50.40
2022-10-11T13:28:45.575Z,50.85
2022-10-11T13:31:14.213Z,49.19
2022-10-11T13:33:45.114Z,50.11
2022-10-11T13:36:20.768Z,49.71
2022-10-11T13:39:00.851Z,50.23
2022-10-11T13:41:30.966Z,50.09
2022-10-11T13:44:00.369Z,50.69
2022-10-11T13:46:31.461Z,51.26
2022-10-11T13:49:05.445Z,51.76
2022-10-11T13:51:38.071Z,51.28
2022-10-11T13:54:13.294Z,51.15
2022-10-11T13:56:48.195Z,51.63
2022-10-11T13:59:19.979Z,51.08
2022-10-11T14:01:49.692Z,51.05
2022-10-11T14:04:18.452Z,51.16
2022-10-11T14:06:59.745Z,50.65
2022-10-11T14:09:35.505Z,49.93
2022-10-11T14:12:32.268Z,50.39
2022-10-11T14:15:01.948Z,49.72
2022-10-11T14:17:44.319Z,49.31
2022-10-11T14:20:18.601Z,49.42
2022-10-11T14:22:49.463Z,49.27
2022-10-11T14:25:18.024Z,49.89
2022-10-11T14:27:47.096Z,49.10
2022-10-11T14:30:27.301Z,50.46
2022-10-11T14:32:59.658Z,50.26
2022-10-11T14:35:35.011Z,50.03
2022-10-11T14:38:03.495Z,50.23
2022-10-11T14:40:32.231Z,50.81
2022-10-11T14:43:00.550Z,51.28
2022-10-11T14:45:29.623Z,51.13
2022-10-11T14:47:57.936Z,51.61
2022-10-11T14:50:37.025Z,51.69
2022-10-11T14:53:06.706Z,50.22
2022-10-11T14:55:37.502Z,49.88
2022-10-11T14:58:07.244Z,50.34
2022-10-11T15:00:36.862Z,50.07
2022-10-11T15:03:09.862Z,50.57
2022-10-11T15:05:38.433Z,50.69
2022-10-11T15:08:07.723Z,50.76
2022-10-11T15:10:41.423Z,51.38
2022-10-11T15:13:10.103Z,51.59
2022-10-11T15:15:41.482Z,51.71
2022-10-11T15:18:13.557Z,51.72
2022-10-11T15:20:44.680Z,52.24
2022-10-11T15:23:13.277Z,52.34
2022-10-11T15:25:44.832Z,52.34
2022-10-11T15:28:26.080Z,52.50
2022-10-11T15:30:55.095Z,52.67
2022-10-11T15:33:25.184Z,53.12
2022-10-11T15:35:54.242Z,53.42
2022-10-11T15:38:25.239Z,53.94
2022-10-11T15:40:54.598Z,54.34
2022-10-11T15:43:24.893Z,54.42
2022-10-11T15:45:57.245Z,54.71
2022-10-11T15:48:27.763Z,55.04
2022-10-11T15:50:57.154Z,55.27
2022-10-11T15:53:30.310Z,55.50
2022-10-11T15:56:19.911Z,55.97
2022-10-11T15:58:48.215Z,56.10
2022-10-11T16:01:19.985Z,56.38
2022-10-11T16:03:49.807Z,56.71
2022-10-11T16:06:18.946Z,57.20
2022-10-11T16:08:48.061Z,57.59
2022-10-11T16:11:16.356Z,57.83
2022-10-11T16:13:45.480Z,58.04
2022-10-11T16:16:14.099Z,57.79
2022-10-11T16:18:42.236Z,58.04
2022-10-11T16:21:14.492Z,58.36
2022-10-11T16:23:43.633Z,58.20
2022-10-11T16:26:14.465Z,58.29
2022-10-11T16:28:43.395Z,58.27
2022-10-11T16:31:15.848Z,58.70
2022-10-11T16:33:48.364Z,59.07
2022-10-11T16:36:33.072Z,59.11
2022-10-11T16:39:06.777Z,59.54
2022-10-11T16:41:35.280Z,60.11
2022-10-11T16:44:04.173Z,60.48
2022-10-11T16:46:34.136Z,60.70
2022-10-11T16:49:03.116Z,61.12
2022-10-11T16:51:31.514Z,61.37
2022-10-11T16:54:01.045Z,61.68
2022-10-11T16:56:30.610Z,61.91
2022-10-11T16:58:59.375Z,62.14
2022-10-11T17:01:28.337Z,62.43
2022-10-11T17:03:58.306Z,62.91
2022-10-11T17:06:26.607Z,63.43
2022-10-11T17:08:55.262Z,63.66
2022-10-11T17:11:24.919Z,63.72
2022-10-11T17:13:54.588Z,63.95
2022-10-11T17:16:23.376Z,64.02
2022-10-11T17:18:52.150Z,64.24
2022-10-11T17:21:22.664Z,64.49
2022-10-11T17:23:53.322Z,64.52
2022-10-11T17:26:27.157Z,64.52
2022-10-11T17:28:59.934Z,64.78
2022-10-11T17:31:30.255Z,65.12
2022-10-11T17:34:00.614Z,65.31
2022-10-11T17:36:38.244Z,65.34
2022-10-11T17:39:19.327Z,65.41
2022-10-11T17:41:48.800Z,65.49
2022-10-11T17:44:18.667Z,65.42
2022-10-11T17:46:48.853Z,65.69
2022-10-11T17:49:17.439Z,65.97
2022-10-11T17:51:47.032Z,66.18
2022-10-11T17:54:16.899Z,66.65
2022-10-11T17:56:45.475Z,66.90
2022-10-11T17:59:21.625Z,67.45
2022-10-11T18:01:51.473Z,67.42
2022-10-11T18:04:22.009Z,67.50
2022-10-11T18:06:50.745Z,67.47
2022-10-11T18:09:21.171Z,67.43
2022-10-11T18:11:50.648Z,67.40
2022-10-11T18:14:19.515Z,67.48
2022-10-11T18:16:47.685Z,67.83
2022-10-11T18:19:16.626Z,68.09
2022-10-11T18:21:46.056Z,68.18
2022-10-11T18:24:16.744Z,68.43
2022-10-11T18:26:46.408Z,68.46
2022-10-11T18:29:15.693Z,68.45
2022-10-11T18:31:44.842Z,68.50
2022-10-11T18:34:15.009Z,68.56
2022-10-11T18:36:44.106Z,68.61
2022-10-11T18:39:15.677Z,68.83
2022-10-11T18:41:46.779Z,69.31
2022-10-11T18:44:18.351Z,69.63
2022-10-11T18:46:51.587Z,69.70
2022-10-11T18:49:21.734Z,69.63
2022-10-11T18:51:50.693Z,69.40
2022-10-11T18:54:21.504Z,69.48
2022-10-11T18:56:51.840Z,69.50
2022-10-11T18:59:22.141Z,69.57
2022-10-11T19:01:52.684Z,70.08
2022-10-11T19:04:21.493Z,70.23
2022-10-11T19:06:52.806Z,70.25
2022-10-11T19:09:26.334Z,70.21
2022-10-11T19:11:57.036Z,70.36
2022-10-11T19:14:28.822Z,70.33
2022-10-11T19:16:59.427Z,70.02
2022-10-11T19:19:30.107Z,69.98
2022-10-11T19:22:00.206Z,69.82
2022-10-11T19:24:31.564Z,69.95
2022-10-11T19:27:02.761Z,70.11
2022-10-11T19:29:32.770Z,70.33
2022-10-11T19:32:03.762Z,70.36
2022-10-11T19:34:33.355Z,70.69
2022-10-11T19:37:03.598Z,70.93
2022-10-11T19:39:32.522Z,70.89
2022-10-11T19:42:01.734Z,71.05
2022-10-11T19:44:35.795Z,71.19
2022-10-11T19:47:12.091Z,71.49
2022-10-11T19:49:40.499Z,71.69
2022-10-11T19:52:09.942Z,71.64
2022-10-11T19:54:38.597Z,71.55
2022-10-11T19:57:08.969Z,71.22
2022-10-11T19:59:37.730Z,70.96
2022-10-11T20:02:06.778Z,70.92
2022-10-11T20:04:52.995Z,71.11
2022-10-11T20:07:21.690Z,71.41
2022-10-11T20:09:50.080Z,71.60
2022-10-11T20:12:18.454Z,71.78
2022-10-11T20:14:46.933Z,71.86
2022-10-11T20:17:17.852Z,72.18
2022-10-11T20:19:46.177Z,72.25
2022-10-11T20:22:14.454Z,72.31
2022-10-11T20:24:42.616Z,72.43
2022-10-11T20:27:10.820Z,72.48
2022-10-11T20:29:39.000Z,72.40
2022-10-11T20:32:07.402Z,72.70
2022-10-11T20:34:39.551Z,72.89
2022-10-11T20:37:07.951Z,72.79
2022-10-11T20:39:36.146Z,72.82
2022-10-11T20:42:04.567Z,73.15
2022-10-11T20:44:33.074Z,73.39
2022-10-11T20:47:03.986Z,73.74
2022-10-11T20:49:32.681Z,73.92
2022-10-11T20:52:01.031Z,74.00
2022-10-11T20:54:30.869Z,73.97
2022-10-11T20:56:59.318Z,74.09
2022-10-11T20:59:27.827Z,74.09
2022-10-11T21:01:56.149Z,73.77
2022-10-11T21:04:24.633Z,73.74
2022-10-11T21:06:53.248Z,73.76
2022-10-11T21:09:22.001Z,73.56
2022-10-11T21:11:50.615Z,73.31
2022-10-11T21:14:19.298Z,73.02
2022-10-11T21:16:48.341Z,73.02
2022-10-11T21:19:17.887Z,72.95
2022-10-11T21:21:53.307Z,72.86
2022-10-11T21:24:23.773Z,72.84
2022-10-11T21:27:00.285Z,73.17
2022-10-11T21:29:29.113Z,72.94
2022-10-11T21:31:57.351Z,72.95
2022-10-11T21:34:25.431Z,73.06
2022-10-11T21:36:53.607Z,73.30
2022-10-11T21:39:21.929Z,73.80
2022-10-11T21:41:50.101Z,73.99
2022-10-11T21:44:18.361Z,73.93
2022-10-11T21:47:07.181Z,73.90
2022-10-11T21:49:35.134Z,73.61
2022-10-11T21:52:03.843Z,73.52
2022-10-11T21:54:32.007Z,73.68
2022-10-11T21:57:00.381Z,74.08
2022-10-11T21:59:28.550Z,74.05
2022-10-11T22:02:01.473Z,74.13
2022-10-11T22:04:30.159Z,74.17
2022-10-11T22:06:58.464Z,74.08
2022-10-11T22:09:28.427Z,74.12
2022-10-11T22:11:57.578Z,74.16
2022-10-11T22:14:25.703Z,74.51
2022-10-11T22:16:53.681Z,74.36
2022-10-11T22:19:22.183Z,74.65
2022-10-11T22:21:50.904Z,74.58
2022-10-11T22:24:19.013Z,74.35
2022-10-11T22:26:47.151Z,74.13
2022-10-11T22:29:15.172Z,74.12
2022-10-11T22:31:43.375Z,74.18
2022-10-11T22:34:11.546Z,74.23
2022-10-11T22:36:39.816Z,74.04
2022-10-11T22:39:08.402Z,74.31
2022-10-11T22:41:37.885Z,74.86
2022-10-11T22:44:06.312Z,75.05
2022-10-11T22:46:34.374Z,75.31
2022-10-11T22:49:03.007Z,75.43
2022-10-11T22:51:31.141Z,75.56
2022-10-11T22:53:59.173Z,75.43
2022-10-11T22:56:27.336Z,75.22
2022-10-11T22:58:55.601Z,75.16
2022-10-11T23:01:23.738Z,75.00
2022-10-11T23:03:52.097Z,75.03
2022-10-11T23:06:20.235Z,74.99
2022-10-11T23:08:48.410Z,74.95
2022-10-11T23:11:16.787Z,74.84
2022-10-11T23:13:45.176Z,74.62
2022-10-11T23:16:13.763Z,74.51
2022-10-11T23:18:42.174Z,74.11
2022-10-11T23:21:10.533Z,74.28
2022-10-11T23:23:39.904Z,74.30
2022-10-11T23:26:13.887Z,74.21
2022-10-11T23:28:43.047Z,73.83
2022-10-11T23:31:16.780Z,73.79
2022-10-11T23:33:45.883Z,73.79
2022-10-11T23:36:23.096Z,73.96
2022-10-11T23:38:56.743Z,74.12
2022-10-11T23:41:27.207Z,74.19
2022-10-11T23:43:55.677Z,74.18
2022-10-11T23:46:23.900Z,74.19
2022-10-11T23:48:52.423Z,74.02
2022-10-11T23:51:20.550Z,74.44
2022-10-11T23:53:48.608Z,74.76
2022-10-11T23:56:16.915Z,74.46
2022-10-11T23:58:45.026Z,74.51
